Главная страница
METAR-TAF:

METAR-TAF

Аэропорты :

Малекула, Вануату

широта: 16-27-26S, долгота: 167-49-42E, высота над уровнем моря: 2 м

METAR: отсутствует

Время: 01:57 (14:57 UTC)

Прогноз

Эта сводка был подготовлена 3 часа и 57 минут назад, в 11:00 UTC
Прогноз действительный с 26-го 12 UTC до 27-го 12 UTC
Ветер 2 Узел переменных направлений
Видимость: 6000 м
Рассеянная облачность на высоте 2000 фута
Сплошная облачность на высоте 10000 фута
Отдельные облака на высоте 1000 фута
Рассеянная облачность на высоте 1600 фута
небольшая облачность на высоте 2000 фута, Кучево-дождевые.
гроза, небольшой дождь,

TAF: NVSL 261100Z 2612/2712 VRB02KT 9999 BKN020 OVC100 INTER 2612/2618 6000 -TSRA SCT010 BKN016 FEW020CB OVC89

Метеонаблюдения и прогнозы для более 4000 аэропортов (сводки METAR и TAF).

Имеющиеся станции представлены на карте желтыми и красными точками.

Чтобы увидеть название станции, наведите на нее мышь.

Затем щелкните, чтобы увидеть метеонаблюдения и метеопрогнозы.

Управление картой: чтобы увеличить масштаб, щелкните зеленые кнопки с черным крестиком; чтобы уменьшить масштаб, щелкните зеленую кнопку с тире; для просмотра соседних карт щелкайте зеленые стрелки.


METAR-TAF: